sensor_id;sensor_type;location;lat;lon;timestamp;P1;durP1;ratioP1;P2;durP2;ratioP2
321;SDS011;148;51.480;7.208;2023-11-21T16:00:33;27.10;;;13.00;;
321;SDS011;148;51.480;7.208;2023-11-21T16:03:00;22.90;;;12.50;;
321;SDS011;148;51.480;7.208;2023-11-21T16:05:25;26.60;;;14.80;;
321;SDS011;148;51.480;7.208;2023-11-21T16:07:51;27.60;;;14.10;;
321;SDS011;148;51.480;7.208;2023-11-21T16:10:18;24.15;;;13.15;;
321;SDS011;148;51.480;7.208;2023-11-21T16:12:44;25.00;;;13.25;;
321;SDS011;148;51.480;7.208;2023-11-21T16:15:10;25.45;;;12.90;;
321;SDS011;148;51.480;7.208;2023-11-21T16:17:36;19.60;;;10.43;;
321;SDS011;148;51.480;7.208;2023-11-21T16:20:03;19.17;;;10.53;;
321;SDS011;148;51.480;7.208;2023-11-21T16:22:37;27.03;;;11.20;;
321;SDS011;148;51.480;7.208;2023-11-21T16:25:03;19.60;;;9.60;;
321;SDS011;148;51.480;7.208;2023-11-21T16:27:31;20.10;;;11.20;;
321;SDS011;148;51.480;7.208;2023-11-21T16:29:57;17.80;;;10.50;;
321;SDS011;148;51.480;7.208;2023-11-21T16:32:23;19.43;;;10.13;;
321;SDS011;148;51.480;7.208;2023-11-21T16:39:41;22.27;;;11.23;;
321;SDS011;148;51.480;7.208;2023-11-21T16:42:06;22.80;;;11.53;;
321;SDS011;148;51.480;7.208;2023-11-21T16:44:33;15.03;;;9.80;;
321;SDS011;148;51.480;7.208;2023-11-21T16:46:58;22.00;;;10.70;;
321;SDS011;148;51.480;7.208;2023-11-21T16:49:31;21.90;;;11.20;;
321;SDS011;148;51.480;7.208;2023-11-21T16:54:27;24.40;;;10.60;;
321;SDS011;148;51.480;7.208;2023-11-21T16:56:53;18.10;;;10.60;;
321;SDS011;148;51.480;7.208;2023-11-21T17:01:45;19.00;;;11.30;;
321;SDS011;148;51.480;7.208;2023-11-21T17:06:40;19.83;;;10.60;;
321;SDS011;148;51.480;7.208;2023-11-21T17:09:06;17.53;;;10.33;;
321;SDS011;148;51.480;7.208;2023-11-21T17:11:37;24.87;;;11.30;;
321;SDS011;148;51.480;7.208;2023-11-21T17:14:07;24.23;;;11.63;;
321;SDS011;148;51.480;7.208;2023-11-21T17:16:33;18.40;;;10.77;;
321;SDS011;148;51.480;7.208;2023-11-21T17:19:00;20.50;;;11.10;;
321;SDS011;148;51.480;7.208;2023-11-21T17:21:28;19.40;;;11.00;;
321;SDS011;148;51.480;7.208;2023-11-21T17:23:55;20.30;;;10.83;;
321;SDS011;148;51.480;7.208;2023-11-21T17:26:25;23.53;;;12.40;;
321;SDS011;148;51.480;7.208;2023-11-21T17:28:51;24.45;;;11.75;;
321;SDS011;148;51.480;7.208;2023-11-21T17:31:18;20.50;;;11.30;;
321;SDS011;148;51.480;7.208;2023-11-21T17:33:44;20.53;;;11.53;;
321;SDS011;148;51.480;7.208;2023-11-21T17:36:09;25.05;;;12.10;;
321;SDS011;148;51.480;7.208;2023-11-21T17:38:38;21.60;;;10.70;;
321;SDS011;148;51.480;7.208;2023-11-21T17:41:04;23.47;;;11.67;;
321;SDS011;148;51.480;7.208;2023-11-21T17:43:30;22.63;;;11.47;;
321;SDS011;148;51.480;7.208;2023-11-21T17:46:04;16.53;;;10.43;;
321;SDS011;148;51.480;7.208;2023-11-21T17:48:30;21.17;;;11.00;;
321;SDS011;148;51.480;7.208;2023-11-21T17:50:55;20.80;;;10.13;;
321;SDS011;148;51.480;7.208;2023-11-21T17:53:21;19.70;;;10.60;;
321;SDS011;148;51.480;7.208;2023-11-21T17:55:47;19.43;;;10.60;;
321;SDS011;148;51.480;7.208;2023-11-21T17:58:13;21.80;;;10.23;;
321;SDS011;148;51.480;7.208;2023-11-21T18:00:39;19.85;;;10.70;;
321;SDS011;148;51.480;7.208;2023-11-21T18:03:05;29.30;;;11.23;;
321;SDS011;148;51.480;7.208;2023-11-21T18:05:30;21.83;;;10.37;;
321;SDS011;148;51.480;7.208;2023-11-21T18:12:52;15.20;;;9.47;;
321;SDS011;148;51.480;7.208;2023-11-21T18:15:18;16.50;;;9.90;;
321;SDS011;148;51.480;7.208;2023-11-21T18:25:03;16.60;;;9.20;;
321;SDS011;148;51.480;7.208;2023-11-21T18:27:29;22.30;;;10.90;;
321;SDS011;148;51.480;7.208;2023-11-21T18:29:55;17.60;;;9.90;;
321;SDS011;148;51.480;7.208;2023-11-21T18:32:21;17.50;;;8.80;;
321;SDS011;148;51.480;7.208;2023-11-21T18:34:48;14.53;;;8.40;;
321;SDS011;148;51.480;7.208;2023-11-21T18:37:18;17.30;;;9.50;;
321;SDS011;148;51.480;7.208;2023-11-21T18:44:36;14.00;;;8.30;;
321;SDS011;148;51.480;7.208;2023-11-21T18:47:01;21.05;;;10.30;;
321;SDS011;148;51.480;7.208;2023-11-21T18:49:27;14.73;;;8.40;;
321;SDS011;148;51.480;7.208;2023-11-21T18:56:46;16.37;;;9.53;;
321;SDS011;148;51.480;7.208;2023-11-21T19:01:37;18.90;;;10.20;;
321;SDS011;148;51.480;7.208;2023-11-21T19:04:05;19.70;;;9.00;;
321;SDS011;148;51.480;7.208;2023-11-21T19:08:57;20.15;;;9.55;;
321;SDS011;148;51.480;7.208;2023-11-21T19:23:37;19.10;;;10.00;;
321;SDS011;148;51.480;7.208;2023-11-21T19:26:03;18.27;;;9.80;;
321;SDS011;148;51.480;7.208;2023-11-21T19:28:28;22.67;;;9.87;;
321;SDS011;148;51.480;7.208;2023-11-21T19:35:46;18.57;;;9.23;;
321;SDS011;148;51.480;7.208;2023-11-21T19:38:14;18.90;;;10.60;;
321;SDS011;148;51.480;7.208;2023-11-21T19:50:25;23.60;;;11.10;;
321;SDS011;148;51.480;7.208;2023-11-21T19:52:51;19.75;;;10.40;;
321;SDS011;148;51.480;7.208;2023-11-21T19:55:16;20.10;;;10.50;;
321;SDS011;148;51.480;7.208;2023-11-21T19:57:42;17.50;;;10.70;;
321;SDS011;148;51.480;7.208;2023-11-21T20:05:03;19.50;;;10.70;;
321;SDS011;148;51.480;7.208;2023-11-21T20:07:30;21.40;;;11.10;;
321;SDS011;148;51.480;7.208;2023-11-21T20:09:59;26.53;;;11.90;;
321;SDS011;148;51.480;7.208;2023-11-21T20:12:24;20.60;;;11.50;;
321;SDS011;148;51.480;7.208;2023-11-21T20:14:50;20.20;;;10.45;;
321;SDS011;148;51.480;7.208;2023-11-21T20:17:16;19.40;;;10.70;;
321;SDS011;148;51.480;7.208;2023-11-21T20:19:43;26.43;;;13.70;;
321;SDS011;148;51.480;7.208;2023-11-21T20:22:09;18.90;;;11.13;;
321;SDS011;148;51.480;7.208;2023-11-21T20:24:35;18.73;;;10.93;;
321;SDS011;148;51.480;7.208;2023-11-21T20:27:01;29.50;;;11.80;;
321;SDS011;148;51.480;7.208;2023-11-21T20:29:30;22.60;;;10.95;;
321;SDS011;148;51.480;7.208;2023-11-21T20:32:02;22.60;;;11.67;;
321;SDS011;148;51.480;7.208;2023-11-21T20:34:30;25.23;;;11.60;;
321;SDS011;148;51.480;7.208;2023-11-21T20:37:01;23.90;;;11.60;;
321;SDS011;148;51.480;7.208;2023-11-21T20:39:26;23.67;;;11.60;;
321;SDS011;148;51.480;7.208;2023-11-21T20:41:53;25.30;;;11.93;;
321;SDS011;148;51.480;7.208;2023-11-21T20:44:22;29.30;;;11.87;;
321;SDS011;148;51.480;7.208;2023-11-21T20:46:48;21.13;;;11.17;;
321;SDS011;148;51.480;7.208;2023-11-21T20:49:25;24.43;;;12.50;;
321;SDS011;148;51.480;7.208;2023-11-21T20:51:51;26.30;;;12.77;;
321;SDS011;148;51.480;7.208;2023-11-21T20:54:17;17.43;;;10.90;;
321;SDS011;148;51.480;7.208;2023-11-21T20:56:42;29.33;;;12.70;;
321;SDS011;148;51.480;7.208;2023-11-21T20:59:08;24.53;;;10.93;;
321;SDS011;148;51.480;7.208;2023-11-21T21:01:35;23.00;;;12.30;;
321;SDS011;148;51.480;7.208;2023-11-21T21:04:02;24.60;;;12.10;;
321;SDS011;148;51.480;7.208;2023-11-21T21:06:29;27.00;;;13.53;;
321;SDS011;148;51.480;7.208;2023-11-21T21:08:55;20.50;;;11.67;;
321;SDS011;148;51.480;7.208;2023-11-21T21:11:22;23.50;;;11.73;;
321;SDS011;148;51.480;7.208;2023-11-21T21:13:47;23.60;;;12.10;;
321;SDS011;148;51.480;7.208;2023-11-21T21:16:17;21.93;;;12.73;;
321;SDS011;148;51.480;7.208;2023-11-21T21:18:50;23.83;;;11.67;;
321;SDS011;148;51.480;7.208;2023-11-21T21:21:17;23.93;;;11.50;;
